Terminal Aerodrome Forecast
Issued by NWS

Home | Current Version | Previous Version | Text Only | Print | Product List | Glossary On
Versions: 1 2 3 4 5 6 7 8 9 10 11 12 13
602
FTUS45 KRIW 071133
TAFCPR
TAF
KCPR 071133Z 0712/0812 29007KT P6SM BKN060 WS015/33035KT
     FM071800 26014G20KT P6SM FEW150 SCT250
     FM080000 24010KT P6SM SCT250=

USA.gov is the U.S. government's official web portal to all federal, state and local government web resources and services.